createdAt,value
2019-06-08T00:00:40.920Z,95.70
2019-06-08T00:03:09.339Z,96.00
2019-06-08T00:05:37.772Z,95.60
2019-06-08T00:08:06.191Z,95.90
2019-06-08T00:10:34.729Z,95.50
2019-06-08T00:13:03.197Z,95.80
2019-06-08T00:15:31.638Z,95.60
2019-06-08T00:18:00.054Z,95.40
2019-06-08T00:20:28.470Z,95.30
2019-06-08T00:22:56.880Z,95.50
2019-06-08T00:25:25.419Z,95.90
2019-06-08T00:27:53.839Z,95.80
2019-06-08T00:30:22.430Z,95.70
2019-06-08T00:32:52.024Z,95.80
2019-06-08T00:35:20.752Z,95.70
2019-06-08T00:37:49.353Z,95.60
2019-06-08T00:40:18.912Z,96.40
2019-06-08T00:42:47.405Z,97.00
2019-06-08T00:45:17.286Z,96.00
2019-06-08T00:47:47.975Z,95.90
2019-06-08T00:50:16.726Z,95.40
2019-06-08T00:52:45.230Z,95.60
2019-06-08T00:55:13.962Z,95.30
2019-06-08T00:57:42.396Z,94.90
2019-06-08T01:00:11.732Z,94.80
2019-06-08T01:02:40.428Z,94.50
2019-06-08T01:05:09.098Z,95.50
2019-06-08T01:07:37.573Z,95.90
2019-06-08T01:10:07.781Z,96.80
2019-06-08T01:12:36.253Z,96.10
2019-06-08T01:15:06.952Z,96.00
2019-06-08T01:17:35.543Z,95.50
2019-06-08T01:20:06.582Z,95.60
2019-06-08T01:22:35.012Z,95.30
2019-06-08T01:25:03.980Z,95.50
2019-06-08T01:27:32.389Z,95.10
2019-06-08T01:30:00.830Z,95.10
2019-06-08T01:32:30.565Z,95.00
2019-06-08T01:34:59.165Z,95.30
2019-06-08T01:37:27.557Z,95.10
2019-06-08T01:39:55.987Z,94.80
2019-06-08T01:42:25.542Z,94.20
2019-06-08T01:44:54.106Z,94.00
2019-06-08T01:47:22.505Z,94.10
2019-06-08T01:49:50.997Z,94.10
2019-06-08T01:52:19.522Z,93.60
2019-06-08T01:54:47.944Z,93.40
2019-06-08T01:57:16.428Z,93.20
2019-06-08T01:59:44.869Z,93.00
2019-06-08T02:02:13.270Z,93.30
2019-06-08T02:04:41.688Z,93.20
2019-06-08T02:07:10.272Z,93.10
2019-06-08T02:09:38.709Z,93.20
2019-06-08T02:12:07.109Z,93.00
2019-06-08T02:14:35.566Z,93.00
2019-06-08T02:17:04.139Z,93.00
2019-06-08T02:19:32.719Z,92.60
2019-06-08T02:22:01.153Z,92.30
2019-06-08T02:24:29.582Z,92.60
2019-06-08T02:26:58.064Z,92.70
2019-06-08T02:29:27.437Z,92.70
2019-06-08T02:31:55.884Z,93.30
2019-06-08T02:34:24.301Z,93.30
2019-06-08T02:36:52.708Z,93.20
2019-06-08T02:39:21.233Z,93.00
2019-06-08T02:41:49.636Z,93.20
2019-06-08T02:44:18.078Z,93.60
2019-06-08T02:46:46.550Z,93.80
2019-06-08T02:49:15.000Z,93.50
2019-06-08T02:51:44.236Z,94.20
2019-06-08T02:54:13.242Z,94.50
2019-06-08T02:56:43.273Z,93.80
2019-06-08T02:59:13.782Z,93.70
2019-06-08T03:01:42.740Z,94.00
2019-06-08T03:04:12.489Z,92.80
2019-06-08T03:06:43.544Z,92.60
2019-06-08T03:09:11.939Z,92.70
2019-06-08T03:11:41.493Z,92.20
2019-06-08T03:14:09.989Z,92.70
2019-06-08T03:16:40.896Z,92.20
2019-06-08T03:19:21.011Z,92.10
2019-06-08T03:21:40.392Z,92.10
2019-06-08T03:24:08.848Z,91.90
2019-06-08T03:26:39.685Z,92.10
2019-06-08T03:29:07.410Z,92.00
2019-06-08T03:31:42.418Z,91.90
2019-06-08T03:34:05.975Z,91.70
2019-06-08T03:36:38.995Z,91.50
2019-06-08T03:39:06.890Z,91.60
2019-06-08T03:41:36.232Z,91.70
2019-06-08T03:44:24.445Z,91.80
2019-06-08T03:46:52.877Z,91.50
2019-06-08T03:49:40.369Z,91.70
2019-06-08T03:51:51.439Z,91.50
2019-06-08T03:54:19.837Z,91.50
2019-06-08T03:56:48.284Z,91.30
2019-06-08T03:59:16.698Z,91.40
2019-06-08T04:01:46.176Z,91.30
2019-06-08T04:04:14.681Z,91.10
2019-06-08T04:06:43.669Z,90.80
2019-06-08T04:09:12.303Z,90.80
2019-06-08T04:11:42.434Z,90.50
2019-06-08T04:14:10.930Z,90.50
2019-06-08T04:16:40.178Z,90.10
2019-06-08T04:19:09.050Z,90.10
2019-06-08T04:21:37.880Z,89.90
2019-06-08T04:24:07.247Z,89.40
2019-06-08T04:26:35.719Z,90.00
2019-06-08T04:29:04.203Z,90.20
2019-06-08T04:31:32.649Z,90.20
2019-06-08T04:34:01.110Z,90.00
2019-06-08T04:36:29.531Z,89.70
2019-06-08T04:38:57.948Z,89.70
2019-06-08T04:41:26.375Z,89.10
2019-06-08T04:43:54.869Z,89.00
2019-06-08T04:46:23.383Z,88.90
2019-06-08T04:48:51.873Z,88.50
2019-06-08T04:51:20.319Z,87.70
2019-06-08T04:53:49.580Z,87.30
2019-06-08T04:56:18.354Z,87.20
2019-06-08T04:58:48.580Z,87.00
2019-06-08T05:01:16.898Z,86.90
2019-06-08T05:03:46.021Z,86.70
2019-06-08T05:06:15.479Z,86.70
2019-06-08T05:08:45.240Z,86.20
2019-06-08T05:11:13.884Z,84.60
2019-06-08T05:13:43.317Z,85.60
2019-06-08T05:16:11.906Z,85.00
2019-06-08T05:18:41.224Z,84.60
2019-06-08T05:21:09.841Z,84.40
2019-06-08T05:23:39.266Z,84.30
2019-06-08T05:26:07.727Z,83.50
2019-06-08T05:28:36.152Z,82.50
2019-06-08T05:31:04.637Z,82.60
2019-06-08T05:33:33.046Z,82.30
2019-06-08T05:36:01.550Z,81.80
2019-06-08T05:38:29.952Z,81.70
2019-06-08T05:40:58.418Z,80.10
2019-06-08T05:43:26.817Z,78.80
2019-06-08T05:45:55.256Z,79.70
2019-06-08T05:48:23.657Z,77.40
2019-06-08T05:51:03.390Z,77.90
2019-06-08T05:53:22.200Z,76.80
2019-06-08T05:55:50.623Z,77.20
2019-06-08T05:58:19.021Z,77.20
2019-06-08T06:00:48.353Z,76.80
2019-06-08T06:03:16.863Z,76.60
2019-06-08T06:05:46.439Z,76.10
2019-06-08T06:08:18.972Z,75.30
2019-06-08T06:10:45.167Z,76.00
2019-06-08T06:13:13.573Z,75.30
2019-06-08T06:15:42.982Z,75.70
2019-06-08T06:18:11.496Z,75.70
2019-06-08T06:20:40.985Z,74.70
2019-06-08T06:23:09.571Z,73.90
2019-06-08T06:25:37.995Z,73.90
2019-06-08T06:28:06.683Z,73.30
2019-06-08T06:30:35.152Z,73.80
2019-06-08T06:33:03.585Z,73.60
2019-06-08T06:35:32.036Z,73.50
2019-06-08T06:38:00.475Z,73.20
2019-06-08T06:40:28.893Z,73.30
2019-06-08T06:42:57.316Z,73.70
2019-06-08T06:45:25.807Z,73.60
2019-06-08T06:47:54.244Z,74.00
2019-06-08T06:50:22.644Z,74.30
2019-06-08T06:52:51.070Z,72.90
2019-06-08T06:55:19.620Z,74.30
2019-06-08T06:57:49.243Z,73.40
2019-06-08T07:00:20.889Z,74.00
2019-06-08T07:02:50.051Z,74.10
2019-06-08T07:05:18.622Z,74.80
2019-06-08T07:07:48.138Z,74.70
2019-06-08T07:10:16.780Z,74.60
2019-06-08T07:12:46.511Z,74.10
2019-06-08T07:15:18.178Z,72.60
2019-06-08T07:17:47.928Z,70.50
2019-06-08T07:20:16.480Z,69.70
2019-06-08T07:22:46.026Z,67.40
2019-06-08T07:25:14.590Z,70.00
2019-06-08T07:27:43.004Z,69.30
2019-06-08T07:30:11.909Z,70.20
2019-06-08T07:32:40.438Z,66.70
2019-06-08T07:35:10.414Z,67.40
2019-06-08T07:37:38.859Z,66.60
2019-06-08T07:40:08.195Z,67.20
2019-06-08T07:42:36.625Z,67.90
2019-06-08T07:45:06.999Z,65.70
2019-06-08T07:47:35.586Z,65.00
2019-06-08T07:50:06.428Z,63.80
2019-06-08T07:52:34.915Z,65.20
2019-06-08T07:55:03.993Z,65.10
2019-06-08T07:57:32.424Z,64.00
2019-06-08T08:00:08.817Z,64.00
2019-06-08T08:02:31.408Z,63.90
2019-06-08T08:04:59.828Z,64.10
2019-06-08T08:07:28.258Z,63.70
2019-06-08T08:09:57.128Z,62.10
2019-06-08T08:12:25.687Z,61.90
2019-06-08T08:14:55.444Z,55.80
2019-06-08T08:17:24.094Z,55.90
2019-06-08T08:19:53.079Z,56.40
2019-06-08T08:22:25.894Z,56.40
2019-06-08T08:24:54.438Z,55.00
2019-06-08T08:27:21.978Z,53.90
2019-06-08T08:29:51.354Z,53.30
2019-06-08T08:32:20.011Z,53.70
2019-06-08T08:34:50.408Z,53.40
2019-06-08T08:37:18.574Z,52.80
2019-06-08T08:39:47.362Z,52.80
2019-06-08T08:42:17.957Z,52.90
2019-06-08T08:44:48.490Z,52.30
2019-06-08T08:47:18.534Z,52.30
2019-06-08T08:49:47.974Z,51.40
2019-06-08T08:52:17.524Z,51.80
2019-06-08T08:54:47.501Z,51.30
2019-06-08T08:57:18.067Z,51.30
2019-06-08T08:59:50.130Z,52.60
2019-06-08T09:02:20.748Z,51.50
2019-06-08T09:04:47.703Z,51.40
2019-06-08T09:07:18.223Z,50.20
2019-06-08T09:09:48.235Z,49.80
2019-06-08T09:12:18.237Z,49.50
2019-06-08T09:14:47.962Z,49.80
2019-06-08T09:17:18.063Z,49.00
2019-06-08T09:19:48.009Z,49.60
2019-06-08T09:22:18.709Z,49.10
2019-06-08T09:24:48.533Z,48.00
2019-06-08T09:27:17.902Z,48.50
2019-06-08T09:29:48.178Z,47.40
2019-06-08T09:32:18.027Z,48.20
2019-06-08T09:34:48.346Z,48.20
2019-06-08T09:37:18.556Z,47.30
2019-06-08T09:39:48.244Z,46.40
2019-06-08T09:42:20.895Z,46.00
2019-06-08T09:44:48.277Z,46.70
2019-06-08T09:47:18.196Z,46.10
2019-06-08T09:49:48.016Z,45.90
2019-06-08T09:52:18.482Z,45.70
2019-06-08T09:54:48.136Z,45.20
2019-06-08T09:57:18.918Z,44.70
2019-06-08T09:59:48.238Z,44.50
2019-06-08T10:02:18.437Z,45.20
2019-06-08T10:04:48.395Z,45.00
2019-06-08T10:07:18.656Z,44.20
2019-06-08T10:09:49.854Z,43.30
2019-06-08T10:12:18.209Z,44.20
2019-06-08T10:14:48.885Z,44.10
2019-06-08T10:17:20.541Z,43.00
2019-06-08T10:19:47.695Z,43.30
2019-06-08T10:22:18.237Z,43.40
2019-06-08T10:24:48.818Z,41.60
2019-06-08T10:27:18.752Z,41.00
2019-06-08T10:29:48.377Z,41.10
2019-06-08T10:32:18.653Z,40.90
2019-06-08T10:34:48.135Z,41.10
2019-06-08T10:37:18.646Z,41.10
2019-06-08T10:39:47.891Z,40.50
2019-06-08T10:42:18.007Z,41.30
2019-06-08T10:44:47.754Z,41.30
2019-06-08T10:47:16.752Z,40.30
2019-06-08T10:49:45.188Z,40.00
2019-06-08T10:52:13.595Z,40.70
2019-06-08T10:54:42.078Z,39.70
2019-06-08T10:57:10.510Z,39.70
2019-06-08T10:59:40.319Z,39.10
2019-06-08T11:02:13.433Z,39.10
2019-06-08T11:04:43.148Z,37.90
2019-06-08T11:07:13.876Z,38.30
2019-06-08T11:09:39.567Z,38.60
2019-06-08T11:12:14.345Z,39.30
2019-06-08T11:14:40.765Z,38.40
2019-06-08T11:17:11.010Z,38.20
2019-06-08T11:19:39.319Z,38.10
2019-06-08T11:22:13.866Z,38.80
2019-06-08T11:24:58.847Z,38.00
2019-06-08T11:27:28.517Z,37.90
2019-06-08T11:29:57.574Z,37.60
2019-06-08T11:32:26.162Z,38.30
2019-06-08T11:34:54.562Z,36.20
2019-06-08T11:37:22.998Z,36.30
2019-06-08T11:39:51.442Z,36.30
2019-06-08T11:42:19.886Z,36.40
2019-06-08T11:44:51.077Z,37.50
2019-06-08T11:47:18.473Z,36.10
2019-06-08T11:49:48.003Z,36.60
2019-06-08T11:52:18.463Z,36.40
2019-06-08T11:54:48.051Z,35.60
2019-06-08T11:57:17.645Z,36.40
2019-06-08T11:59:48.502Z,35.80
2019-06-08T12:02:18.480Z,35.70
2019-06-08T12:04:47.273Z,37.00
2019-06-08T12:07:15.702Z,36.60
2019-06-08T12:09:44.109Z,36.20
2019-06-08T12:12:17.499Z,36.10
2019-06-08T12:14:42.696Z,36.10
2019-06-08T12:17:16.826Z,35.80
2019-06-08T12:19:41.325Z,35.80
2019-06-08T12:22:11.529Z,36.20
2019-06-08T12:24:42.305Z,36.70
2019-06-08T12:27:24.833Z,36.70
2019-06-08T12:29:40.445Z,35.30
2019-06-08T12:32:10.413Z,35.20
2019-06-08T12:34:39.000Z,36.00
2019-06-08T12:37:08.785Z,35.30
2019-06-08T12:39:38.770Z,35.40
2019-06-08T12:42:09.605Z,35.20
2019-06-08T12:44:38.298Z,34.80
2019-06-08T12:47:10.673Z,33.20
2019-06-08T12:49:39.987Z,34.20
2019-06-08T12:52:08.650Z,34.20
2019-06-08T12:54:37.414Z,34.30
2019-06-08T12:57:07.906Z,33.50
2019-06-08T12:59:38.301Z,32.90
2019-06-08T13:02:10.615Z,33.20
2019-06-08T13:04:38.328Z,33.80
2019-06-08T13:07:09.765Z,32.80
2019-06-08T13:09:38.130Z,33.00
2019-06-08T13:12:08.007Z,32.30
2019-06-08T13:14:38.580Z,33.00
2019-06-08T13:17:08.730Z,33.10
2019-06-08T13:19:38.675Z,32.40
2019-06-08T13:22:08.793Z,32.90
2019-06-08T13:24:37.720Z,33.20
2019-06-08T13:27:06.637Z,32.50
2019-06-08T13:29:35.045Z,32.10
2019-06-08T13:32:03.528Z,32.40
2019-06-08T13:34:32.017Z,31.20
2019-06-08T13:37:00.451Z,30.90
2019-06-08T13:39:28.849Z,30.70
2019-06-08T13:41:57.288Z,30.00
2019-06-08T13:44:27.889Z,29.90
2019-06-08T13:46:57.827Z,30.20
2019-06-08T13:49:29.702Z,30.70
2019-06-08T13:51:58.396Z,31.70
2019-06-08T13:54:30.904Z,30.00
2019-06-08T13:56:58.770Z,30.00
2019-06-08T13:59:30.307Z,30.80
2019-06-08T14:01:58.032Z,30.80
2019-06-08T14:04:26.906Z,31.80
2019-06-08T14:06:57.720Z,31.20
2019-06-08T14:09:28.538Z,30.70
2019-06-08T14:11:57.724Z,30.60
2019-06-08T14:14:28.812Z,31.40
2019-06-08T14:16:58.731Z,30.30
2019-06-08T14:19:29.763Z,31.80
2019-06-08T14:21:57.156Z,30.00
2019-06-08T14:24:30.036Z,29.60
2019-06-08T14:26:55.716Z,30.20
2019-06-08T14:29:24.502Z,30.10
2019-06-08T14:31:54.209Z,30.50
2019-06-08T14:34:23.671Z,30.00
2019-06-08T14:36:52.792Z,31.10
2019-06-08T14:39:21.945Z,30.30
2019-06-08T14:41:51.580Z,30.80
2019-06-08T14:44:21.145Z,30.90
2019-06-08T14:46:50.165Z,29.60
2019-06-08T14:49:23.589Z,30.00
2019-06-08T14:51:49.147Z,31.10
2019-06-08T14:54:23.474Z,29.40
2019-06-08T14:56:49.767Z,29.30
2019-06-08T14:59:20.085Z,29.00
2019-06-08T15:01:49.063Z,29.20
2019-06-08T15:04:22.335Z,29.10
2019-06-08T15:06:48.794Z,28.80
2019-06-08T15:09:17.905Z,28.00
2019-06-08T15:11:48.064Z,28.20
2019-06-08T15:14:16.592Z,27.90
2019-06-08T15:16:45.084Z,28.20
2019-06-08T15:19:13.488Z,28.70
2019-06-08T15:21:41.909Z,28.80
2019-06-08T15:24:10.314Z,28.10
2019-06-08T15:26:44.918Z,28.20
2019-06-08T15:29:08.973Z,28.70
2019-06-08T15:31:39.037Z,28.90
2019-06-08T15:34:10.533Z,29.50
2019-06-08T15:36:38.256Z,28.80
2019-06-08T15:39:07.918Z,29.10
2019-06-08T15:41:38.220Z,29.70
2019-06-08T15:44:06.895Z,29.50
2019-06-08T15:46:35.329Z,29.70
2019-06-08T15:49:03.736Z,29.30
2019-06-08T15:51:37.268Z,27.80
2019-06-08T15:54:02.304Z,28.60
2019-06-08T15:56:41.781Z,28.20
2019-06-08T15:59:00.858Z,27.70
2019-06-08T16:01:29.470Z,27.10
2019-06-08T16:03:57.957Z,27.90
2019-06-08T16:06:27.709Z,28.60
2019-06-08T16:08:56.245Z,28.80
2019-06-08T16:11:24.743Z,29.10
2019-06-08T16:13:53.165Z,28.60
2019-06-08T16:16:21.585Z,29.10
2019-06-08T16:18:49.998Z,28.70
2019-06-08T16:21:18.482Z,29.00
2019-06-08T16:23:48.026Z,28.60
2019-06-08T16:26:16.431Z,28.00
2019-06-08T16:28:45.096Z,27.90
2019-06-08T16:31:13.535Z,26.10
2019-06-08T16:33:44.181Z,25.70
2019-06-08T16:36:12.100Z,24.60
2019-06-08T16:38:40.507Z,24.60
2019-06-08T16:41:08.984Z,26.10
2019-06-08T16:43:37.442Z,26.90
2019-06-08T16:46:05.869Z,27.00
2019-06-08T16:48:34.664Z,27.00
2019-06-08T16:51:03.155Z,28.10
2019-06-08T16:53:32.502Z,27.10
2019-06-08T16:56:01.941Z,26.00
2019-06-08T16:58:30.693Z,24.70
2019-06-08T17:01:00.299Z,25.40
2019-06-08T17:03:28.807Z,25.40
2019-06-08T17:05:57.255Z,24.60
2019-06-08T17:08:25.675Z,24.60
2019-06-08T17:10:54.239Z,24.90
2019-06-08T17:13:22.650Z,24.50
2019-06-08T17:15:51.078Z,24.70
2019-06-08T17:18:19.472Z,25.30
2019-06-08T17:20:47.921Z,27.80
2019-06-08T17:23:16.355Z,28.90
2019-06-08T17:25:44.829Z,29.40
2019-06-08T17:28:13.236Z,29.50
2019-06-08T17:30:41.989Z,30.40
2019-06-08T17:33:10.397Z,30.00
2019-06-08T17:35:39.883Z,30.00
2019-06-08T17:38:08.417Z,30.40
2019-06-08T17:40:37.990Z,30.10
2019-06-08T17:43:06.647Z,30.70
2019-06-08T17:45:36.278Z,31.80
2019-06-08T17:48:04.871Z,32.20
2019-06-08T17:50:34.566Z,32.10
2019-06-08T17:53:03.664Z,32.20
2019-06-08T17:55:33.103Z,32.80
2019-06-08T17:58:01.801Z,32.50
2019-06-08T18:00:30.321Z,32.70
2019-06-08T18:03:00.727Z,32.60
2019-06-08T18:05:28.919Z,32.50
2019-06-08T18:07:57.837Z,32.70
2019-06-08T18:10:27.710Z,33.00
2019-06-08T18:12:58.734Z,33.10
2019-06-08T18:15:28.348Z,33.20
2019-06-08T18:17:57.693Z,33.20
2019-06-08T18:20:28.313Z,34.00
2019-06-08T18:22:57.832Z,34.80
2019-06-08T18:25:27.939Z,35.90
2019-06-08T18:28:07.048Z,37.30
2019-06-08T18:30:27.653Z,38.20
2019-06-08T18:32:58.055Z,39.00
2019-06-08T18:35:27.817Z,39.50
2019-06-08T18:37:57.815Z,40.40
2019-06-08T18:40:27.598Z,41.30
2019-06-08T18:42:57.607Z,41.80
2019-06-08T18:45:27.671Z,42.60
2019-06-08T18:47:57.787Z,42.90
2019-06-08T18:50:28.518Z,43.20
2019-06-08T18:52:57.969Z,43.40
2019-06-08T18:55:27.833Z,43.80
2019-06-08T18:57:57.170Z,44.20
2019-06-08T19:00:40.038Z,44.60
2019-06-08T19:03:07.386Z,44.80
2019-06-08T19:05:40.254Z,45.40
2019-06-08T19:08:08.399Z,46.00
2019-06-08T19:10:39.046Z,45.70
2019-06-08T19:13:07.638Z,46.70
2019-06-08T19:15:41.883Z,47.40
2019-06-08T19:18:08.265Z,47.60
2019-06-08T19:20:40.666Z,48.00
2019-06-08T19:23:09.077Z,48.50
2019-06-08T19:25:42.212Z,48.80
2019-06-08T19:28:07.860Z,49.20
2019-06-08T19:30:39.410Z,49.50
2019-06-08T19:33:07.374Z,50.00
2019-06-08T19:35:35.990Z,50.10
2019-06-08T19:38:04.418Z,50.40
2019-06-08T19:40:32.820Z,50.80
2019-06-08T19:43:01.629Z,51.10
2019-06-08T19:45:30.149Z,51.50
2019-06-08T19:47:58.555Z,51.60
2019-06-08T19:50:28.622Z,51.80
2019-06-08T19:52:58.084Z,52.30
2019-06-08T19:55:26.636Z,52.50
2019-06-08T19:57:57.057Z,52.80
2019-06-08T20:00:27.509Z,52.90
2019-06-08T20:02:58.077Z,53.40
2019-06-08T20:05:27.914Z,53.50
2019-06-08T20:07:57.426Z,54.00
2019-06-08T20:10:27.989Z,54.50
2019-06-08T20:12:57.646Z,54.60
2019-06-08T20:15:26.299Z,55.00
2019-06-08T20:17:57.258Z,55.40
2019-06-08T20:20:24.843Z,55.80
2019-06-08T20:22:53.599Z,55.90
2019-06-08T20:25:22.158Z,56.30
2019-06-08T20:27:51.714Z,56.60
2019-06-08T20:30:20.499Z,56.90
2019-06-08T20:32:50.742Z,57.20
2019-06-08T20:35:19.137Z,57.80
2019-06-08T20:37:47.890Z,58.00
2019-06-08T20:40:18.035Z,58.40
2019-06-08T20:42:49.320Z,59.00
2019-06-08T20:45:17.290Z,58.70
2019-06-08T20:47:49.454Z,58.70
2019-06-08T20:50:17.639Z,59.10
2019-06-08T20:52:47.227Z,59.50
2019-06-08T20:55:17.543Z,59.70
2019-06-08T20:57:49.096Z,60.10
2019-06-08T21:00:16.605Z,60.30
2019-06-08T21:02:46.390Z,60.90
2019-06-08T21:05:18.201Z,61.20
2019-06-08T21:07:48.876Z,62.00
2019-06-08T21:10:17.440Z,62.60
2019-06-08T21:12:49.620Z,62.90
2019-06-08T21:15:17.764Z,63.70
2019-06-08T21:17:49.139Z,64.50
2019-06-08T21:20:17.723Z,64.90
2019-06-08T21:22:50.028Z,65.60
2019-06-08T21:25:17.595Z,65.70
2019-06-08T21:27:48.517Z,66.00
2019-06-08T21:30:21.654Z,66.60
2019-06-08T21:32:50.333Z,66.70
2019-06-08T21:35:18.370Z,67.30
2019-06-08T21:37:50.675Z,68.50
2019-06-08T21:40:37.619Z,69.00
2019-06-08T21:43:08.186Z,69.40
2019-06-08T21:45:38.104Z,71.10
2019-06-08T21:48:07.476Z,71.80
2019-06-08T21:50:37.125Z,72.60
2019-06-08T21:53:07.692Z,73.80
2019-06-08T21:55:38.059Z,74.90
2019-06-08T21:58:08.106Z,76.70
2019-06-08T22:00:42.788Z,78.00
2019-06-08T22:03:08.192Z,79.70
2019-06-08T22:05:37.714Z,81.50
2019-06-08T22:08:08.045Z,83.60
2019-06-08T22:10:37.695Z,84.30
2019-06-08T22:13:08.599Z,85.90
2019-06-08T22:15:37.900Z,89.30
2019-06-08T22:18:07.997Z,90.40
2019-06-08T22:20:39.279Z,90.30
2019-06-08T22:23:07.762Z,91.00
2019-06-08T22:25:38.544Z,91.40
2019-06-08T22:28:07.208Z,91.80
2019-06-08T22:30:42.530Z,92.30
2019-06-08T22:33:06.087Z,93.00
2019-06-08T22:35:37.106Z,92.90
2019-06-08T22:38:04.714Z,93.10
2019-06-08T22:40:33.153Z,93.40
2019-06-08T22:43:01.553Z,94.00
2019-06-08T22:45:29.972Z,94.20
2019-06-08T22:48:00.546Z,93.80
2019-06-08T22:50:28.607Z,94.20
2019-06-08T22:52:59.313Z,94.60
2019-06-08T22:55:27.763Z,95.20
2019-06-08T22:57:59.592Z,95.60
2019-06-08T23:00:27.995Z,95.80
2019-06-08T23:03:00.393Z,96.10
2019-06-08T23:05:27.883Z,96.20
2019-06-08T23:07:59.843Z,95.90
2019-06-08T23:10:26.538Z,96.30
2019-06-08T23:12:54.942Z,96.70
2019-06-08T23:15:23.363Z,96.90
2019-06-08T23:17:51.783Z,97.10
2019-06-08T23:20:20.472Z,97.50
2019-06-08T23:22:48.867Z,97.60
2019-06-08T23:25:18.352Z,97.70
2019-06-08T23:27:48.391Z,97.90
2019-06-08T23:30:18.458Z,97.90
2019-06-08T23:32:48.041Z,98.30
2019-06-08T23:35:18.228Z,98.50
2019-06-08T23:37:47.814Z,98.90
2019-06-08T23:40:17.958Z,98.60
2019-06-08T23:42:47.606Z,98.60
2019-06-08T23:45:17.657Z,98.90
2019-06-08T23:47:48.016Z,99.10
2019-06-08T23:50:17.844Z,99.30
2019-06-08T23:52:47.758Z,99.60
2019-06-08T23:55:18.141Z,99.90
2019-06-08T23:57:46.686Z,99.90
